Time;durP1;ratioP1;P1;durP2;ratioP2;P2;SDS_P1;SDS_P2;PMS_P1;PMS_P2;Temp;Humidity;BMP_temperature;BMP_pressure;BME280_temperature;BME280_humidity;BME280_pressure;Samples;Min_cycle;Max_cycle;Signal;HPM_P1;HPM_P2
2023/12/16 00:00:12;;;;;;;13.82;6.82;;;;;;;;;;6390309;22;20093;-74
2023/12/16 00:02:38;;;;;;;17.52;7.47;;;;;;;;;;6390087;22;20061;-75
2023/12/16 00:05:04;;;;;;;17.98;7.53;;;;;;;;;;6389622;22;20078;-74
2023/12/16 00:07:29;;;;;;;15.57;6.75;;;;;;;;;;6390396;22;20132;-75
2023/12/16 00:09:54;;;;;;;17.20;7.32;;;;;;;;;;6390503;22;20010;-74
2023/12/16 00:12:20;;;;;;;20.40;7.40;;;;;;;;;;6390077;22;20811;-74
2023/12/16 00:14:45;;;;;;;17.83;7.25;;;;;;;;;;6361166;22;20017;-74
2023/12/16 00:17:12;;;;;;;17.85;7.43;;;;;;;;;;6390220;22;20006;-74
2023/12/16 00:19:37;;;;;;;15.85;7.18;;;;;;;;;;6391308;22;19994;-74
2023/12/16 00:22:03;;;;;;;14.32;6.38;;;;;;;;;;6390849;22;20006;-74
2023/12/16 00:24:28;;;;;;;13.13;6.30;;;;;;;;;;6391188;22;20287;-74
2023/12/16 00:26:53;;;;;;;18.23;6.75;;;;;;;;;;6362792;22;20401;-74
2023/12/16 00:29:19;;;;;;;12.98;6.25;;;;;;;;;;6392460;22;20017;-74
2023/12/16 00:31:44;;;;;;;15.40;5.88;;;;;;;;;;6399600;22;19998;-75
2023/12/16 00:34:10;;;;;;;15.15;5.85;;;;;;;;;;6378191;22;20002;-74
2023/12/16 00:36:35;;;;;;;15.18;5.72;;;;;;;;;;6367625;22;20026;-74
2023/12/16 00:39:01;;;;;;;13.60;5.97;;;;;;;;;;6362090;22;20453;-74
2023/12/16 00:41:26;;;;;;;13.55;5.45;;;;;;;;;;6361945;22;20006;-74
2023/12/16 00:43:52;;;;;;;11.57;5.05;;;;;;;;;;6362152;22;20340;-75
2023/12/16 00:46:17;;;;;;;17.25;5.65;;;;;;;;;;6362429;22;20456;-75
2023/12/16 00:48:43;;;;;;;11.98;5.15;;;;;;;;;;6362009;22;20075;-74
2023/12/16 00:51:08;;;;;;;13.18;4.60;;;;;;;;;;6390948;22;20067;-75
2023/12/16 00:53:34;;;;;;;16.40;5.00;;;;;;;;;;6389642;22;20033;-74
2023/12/16 00:55:59;;;;;;;13.57;4.95;;;;;;;;;;6390659;22;20014;-74
2023/12/16 00:58:24;;;;;;;13.63;4.95;;;;;;;;;;6390961;22;20002;-74
2023/12/16 01:00:50;;;;;;;11.13;4.60;;;;;;;;;;6362002;22;20006;-75
2023/12/16 01:03:15;;;;;;;14.30;4.22;;;;;;;;;;6390377;22;20010;-74
2023/12/16 01:05:41;;;;;;;11.52;4.32;;;;;;;;;;6361518;22;20038;-75
2023/12/16 01:08:06;;;;;;;10.10;4.10;;;;;;;;;;6390247;22;20013;-74
2023/12/16 01:10:31;;;;;;;10.80;4.38;;;;;;;;;;6390687;22;20005;-74
2023/12/16 01:12:58;;;;;;;10.95;4.53;;;;;;;;;;6389768;22;20014;-74
2023/12/16 01:15:23;;;;;;;12.90;4.57;;;;;;;;;;6361014;22;20025;-75
2023/12/16 01:17:48;;;;;;;14.15;4.47;;;;;;;;;;6389563;22;20462;-74
2023/12/16 01:20:14;;;;;;;15.30;4.55;;;;;;;;;;6390600;22;20075;-74
2023/12/16 01:22:39;;;;;;;11.35;4.93;;;;;;;;;;6361559;22;19998;-74
2023/12/16 01:25:05;;;;;;;11.38;3.95;;;;;;;;;;6390715;22;19994;-74
2023/12/16 01:27:32;;;;;;;15.38;5.45;;;;;;;;;;6389774;22;20061;-74
2023/12/16 01:29:57;;;;;;;12.35;4.40;;;;;;;;;;6361343;22;20009;-75
2023/12/16 01:32:22;;;;;;;10.23;3.97;;;;;;;;;;6389788;22;20018;-74
2023/12/16 01:34:47;;;;;;;10.52;4.10;;;;;;;;;;6389784;22;20029;-75
2023/12/16 01:37:13;;;;;;;12.20;4.20;;;;;;;;;;6362732;22;19998;-74
2023/12/16 01:39:39;;;;;;;12.88;4.55;;;;;;;;;;6389982;22;20014;-74
2023/12/16 01:42:04;;;;;;;9.77;4.22;;;;;;;;;;6389975;22;20013;-74
2023/12/16 01:44:29;;;;;;;13.43;3.88;;;;;;;;;;6362594;22;20063;-75
2023/12/16 01:46:55;;;;;;;12.77;3.63;;;;;;;;;;6390284;22;19994;-74
2023/12/16 01:49:21;;;;;;;8.98;3.50;;;;;;;;;;6392747;22;20002;-74
2023/12/16 01:51:47;;;;;;;10.32;3.42;;;;;;;;;;6400058;22;20033;-75
2023/12/16 01:54:12;;;;;;;14.70;4.85;;;;;;;;;;6410813;22;20373;-74
2023/12/16 01:56:38;;;;;;;9.20;3.85;;;;;;;;;;6399619;22;20005;-74
2023/12/16 01:59:05;;;;;;;12.77;4.13;;;;;;;;;;6393734;22;20412;-75
2023/12/16 02:01:32;;;;;;;14.40;4.22;;;;;;;;;;6392286;22;20557;-74
2023/12/16 02:03:57;;;;;;;12.65;4.22;;;;;;;;;;6390265;22;20010;-74
2023/12/16 02:06:24;;;;;;;10.52;3.60;;;;;;;;;;6360663;22;20024;-75
2023/12/16 02:08:50;;;;;;;16.75;4.65;;;;;;;;;;6361514;22;20048;-75
2023/12/16 02:11:16;;;;;;;13.63;4.75;;;;;;;;;;6389587;22;20029;-74
2023/12/16 02:13:42;;;;;;;12.48;4.00;;;;;;;;;;6361496;22;20006;-75
2023/12/16 02:16:09;;;;;;;10.43;3.50;;;;;;;;;;6361940;22;20416;-75
2023/12/16 02:18:35;;;;;;;15.75;4.32;;;;;;;;;;6361596;22;20014;-74
2023/12/16 02:21:00;;;;;;;11.80;4.88;;;;;;;;;;6388874;22;20025;-74
2023/12/16 02:23:26;;;;;;;11.25;4.20;;;;;;;;;;6389529;22;20006;-74
2023/12/16 02:25:51;;;;;;;7.95;3.45;;;;;;;;;;6389883;22;20036;-74
2023/12/16 02:28:17;;;;;;;9.13;3.38;;;;;;;;;;6389926;22;20072;-74
2023/12/16 02:30:42;;;;;;;13.05;3.75;;;;;;;;;;6389684;22;20040;-74
2023/12/16 02:33:07;;;;;;;14.98;3.90;;;;;;;;;;6389725;22;20376;-74
2023/12/16 02:35:33;;;;;;;8.38;3.30;;;;;;;;;;6360989;22;20035;-74
2023/12/16 02:37:59;;;;;;;11.27;3.60;;;;;;;;;;6389710;22;20010;-74
2023/12/16 02:40:24;;;;;;;14.43;3.58;;;;;;;;;;6390229;22;19998;-74
2023/12/16 02:42:49;;;;;;;15.93;3.88;;;;;;;;;;6360561;22;20006;-74
2023/12/16 02:45:15;;;;;;;11.07;3.20;;;;;;;;;;6389166;22;20006;-73
2023/12/16 02:47:41;;;;;;;9.00;2.85;;;;;;;;;;6389638;22;20525;-74
2023/12/16 02:50:07;;;;;;;11.45;3.10;;;;;;;;;;6360947;22;20013;-74
2023/12/16 02:52:33;;;;;;;9.88;2.95;;;;;;;;;;6389525;22;20078;-74
2023/12/16 02:54:58;;;;;;;10.13;3.20;;;;;;;;;;6390142;22;20014;-74
2023/12/16 02:57:23;;;;;;;13.82;3.05;;;;;;;;;;6389076;22;20009;-74
2023/12/16 02:59:49;;;;;;;9.63;2.95;;;;;;;;;;6362317;22;20364;-74
2023/12/16 03:02:14;;;;;;;14.27;2.83;;;;;;;;;;6390761;22;20101;-74
2023/12/16 03:04:39;;;;;;;7.15;2.85;;;;;;;;;;6363420;22;20459;-74
2023/12/16 03:07:05;;;;;;;8.63;2.75;;;;;;;;;;6393050;22;20079;-74
2023/12/16 03:09:30;;;;;;;8.60;2.85;;;;;;;;;;6367299;22;20029;-74
2023/12/16 03:11:55;;;;;;;7.80;3.20;;;;;;;;;;6405213;22;20022;-74
2023/12/16 03:14:21;;;;;;;13.80;3.08;;;;;;;;;;6375891;22;20033;-74
2023/12/16 03:16:47;;;;;;;10.52;2.90;;;;;;;;;;6391249;22;20005;-74
2023/12/16 03:19:12;;;;;;;6.93;2.75;;;;;;;;;;6391597;22;19990;-74
2023/12/16 03:21:38;;;;;;;10.75;2.63;;;;;;;;;;6386174;22;20020;-74
2023/12/16 03:24:03;;;;;;;13.68;3.00;;;;;;;;;;6362627;22;20040;-74
2023/12/16 03:26:29;;;;;;;11.07;2.78;;;;;;;;;;6391727;22;20010;-74
2023/12/16 03:28:55;;;;;;;12.82;3.28;;;;;;;;;;6390560;22;20081;-74
2023/12/16 03:31:21;;;;;;;13.10;3.33;;;;;;;;;;6362802;22;19996;-74
2023/12/16 03:33:46;;;;;;;10.15;3.60;;;;;;;;;;6362431;22;20104;-74
2023/12/16 03:36:11;;;;;;;11.20;3.38;;;;;;;;;;6391223;22;20066;-74
2023/12/16 03:38:37;;;;;;;9.90;3.50;;;;;;;;;;6391186;22;20461;-74
2023/12/16 03:41:04;;;;;;;6.85;3.30;;;;;;;;;;6362465;22;20066;-74
2023/12/16 03:43:29;;;;;;;8.27;3.25;;;;;;;;;;6391649;22;20001;-74
2023/12/16 03:45:55;;;;;;;11.82;4.35;;;;;;;;;;6362921;22;20173;-74
2023/12/16 03:48:20;;;;;;;7.82;3.25;;;;;;;;;;6363097;22;20006;-74
2023/12/16 03:50:45;;;;;;;12.30;3.20;;;;;;;;;;6391054;22;20014;-74
2023/12/16 03:53:11;;;;;;;10.38;3.88;;;;;;;;;;6362810;22;20022;-74
2023/12/16 03:55:36;;;;;;;8.75;3.05;;;;;;;;;;6390940;22;20437;-74
2023/12/16 03:58:01;;;;;;;19.02;3.75;;;;;;;;;;6390646;22;20105;-74
2023/12/16 04:00:27;;;;;;;9.10;3.03;;;;;;;;;;6362514;22;20036;-74
2023/12/16 04:02:52;;;;;;;9.45;2.83;;;;;;;;;;6390426;22;20752;-74
2023/12/16 04:05:17;;;;;;;10.85;2.83;;;;;;;;;;6362301;22;20052;-74
2023/12/16 04:07:43;;;;;;;15.05;2.88;;;;;;;;;;6362151;22;20001;-74
2023/12/16 04:10:10;;;;;;;14.25;3.20;;;;;;;;;;6390986;22;19994;-74
2023/12/16 04:12:35;;;;;;;7.60;2.97;;;;;;;;;;6362118;22;20014;-74
2023/12/16 04:15:01;;;;;;;11.00;3.05;;;;;;;;;;6390474;22;20005;-74
2023/12/16 04:17:26;;;;;;;15.10;3.65;;;;;;;;;;6390992;22;20497;-74
2023/12/16 04:19:52;;;;;;;10.48;3.30;;;;;;;;;;6391180;22;20002;-74
2023/12/16 04:22:19;;;;;;;12.23;2.70;;;;;;;;;;6391504;22;20437;-74
2023/12/16 04:24:44;;;;;;;7.32;2.83;;;;;;;;;;6362643;22;20013;-74
2023/12/16 04:27:10;;;;;;;19.13;3.85;;;;;;;;;;6392311;22;20078;-74
2023/12/16 04:29:35;;;;;;;11.10;2.97;;;;;;;;;;6369253;22;20006;-74
2023/12/16 04:32:01;;;;;;;9.90;3.15;;;;;;;;;;6408430;22;20463;-75
2023/12/16 04:34:26;;;;;;;9.38;4.03;;;;;;;;;;6380537;22;20001;-74
2023/12/16 04:36:51;;;;;;;9.48;3.10;;;;;;;;;;6365983;22;20518;-74
2023/12/16 04:39:16;;;;;;;13.13;3.55;;;;;;;;;;6391257;22;20512;-74
2023/12/16 04:41:42;;;;;;;10.55;2.90;;;;;;;;;;6390793;22;20014;-74
2023/12/16 04:44:07;;;;;;;13.40;4.30;;;;;;;;;;6362769;22;20368;-74
2023/12/16 04:46:33;;;;;;;13.85;3.72;;;;;;;;;;6390724;22;20504;-74
2023/12/16 04:48:58;;;;;;;13.15;3.33;;;;;;;;;;6390136;22;20014;-74
2023/12/16 04:51:23;;;;;;;7.38;2.92;;;;;;;;;;6389952;22;20022;-74
2023/12/16 04:53:49;;;;;;;8.43;3.20;;;;;;;;;;6390931;22;20510;-74
2023/12/16 04:56:14;;;;;;;7.07;2.38;;;;;;;;;;6390043;22;20010;-75
2023/12/16 04:58:39;;;;;;;13.10;3.13;;;;;;;;;;6362215;22;20005;-75
2023/12/16 05:01:05;;;;;;;9.77;3.03;;;;;;;;;;6390930;22;19989;-75
2023/12/16 05:03:31;;;;;;;7.35;2.25;;;;;;;;;;6390235;22;20776;-75
2023/12/16 05:05:57;;;;;;;7.93;2.45;;;;;;;;;;6388606;22;20081;-74
2023/12/16 05:08:22;;;;;;;8.48;2.80;;;;;;;;;;6388990;22;20009;-74
2023/12/16 05:10:48;;;;;;;10.98;3.65;;;;;;;;;;6362463;22;20066;-74
2023/12/16 05:13:14;;;;;;;7.47;2.60;;;;;;;;;;6390301;22;20057;-74
2023/12/16 05:15:40;;;;;;;8.50;3.05;;;;;;;;;;6389173;22;20010;-74
2023/12/16 05:18:06;;;;;;;9.40;2.75;;;;;;;;;;6389842;22;20559;-74
2023/12/16 05:20:31;;;;;;;9.65;2.60;;;;;;;;;;6389315;22;20508;-74
2023/12/16 05:22:59;;;;;;;9.90;3.10;;;;;;;;;;6389759;22;19998;-75
2023/12/16 05:25:26;;;;;;;8.88;2.38;;;;;;;;;;6390604;22;20425;-74
2023/12/16 05:27:51;;;;;;;8.90;2.50;;;;;;;;;;6388097;22;20012;-75
2023/12/16 05:30:16;;;;;;;11.55;2.58;;;;;;;;;;6389101;22;20021;-74
2023/12/16 05:32:42;;;;;;;9.05;2.40;;;;;;;;;;6389678;22;20024;-74
2023/12/16 05:35:07;;;;;;;9.18;1.90;;;;;;;;;;6388956;22;20080;-74
2023/12/16 05:37:32;;;;;;;9.45;2.47;;;;;;;;;;6390894;22;20056;-74
2023/12/16 05:39:58;;;;;;;13.00;2.85;;;;;;;;;;6389616;22;20025;-74
2023/12/16 05:42:23;;;;;;;12.68;2.78;;;;;;;;;;6389671;22;20105;-75
2023/12/16 05:44:48;;;;;;;6.80;2.30;;;;;;;;;;6390250;22;20478;-75
2023/12/16 05:47:14;;;;;;;10.70;2.45;;;;;;;;;;6391786;22;20012;-74
2023/12/16 05:49:39;;;;;;;10.70;3.03;;;;;;;;;;6399336;22;20005;-75
2023/12/16 05:52:05;;;;;;;7.43;2.35;;;;;;;;;;6405067;22;20088;-74
2023/12/16 05:54:30;;;;;;;9.38;2.20;;;;;;;;;;6394185;22;20097;-74
2023/12/16 05:56:55;;;;;;;7.65;2.33;;;;;;;;;;6390077;22;20041;-74
2023/12/16 05:59:21;;;;;;;6.55;2.65;;;;;;;;;;6389484;22;20017;-74
2023/12/16 06:01:46;;;;;;;11.27;3.08;;;;;;;;;;6360670;22;20080;-74
2023/12/16 06:04:13;;;;;;;10.65;3.17;;;;;;;;;;6390202;22;19994;-74
2023/12/16 06:06:38;;;;;;;12.98;2.95;;;;;;;;;;6388552;22;20022;-74
2023/12/16 06:09:04;;;;;;;9.05;2.92;;;;;;;;;;6361527;22;20420;-75
2023/12/16 06:11:29;;;;;;;7.47;3.10;;;;;;;;;;6361307;22;20029;-75
2023/12/16 06:13:54;;;;;;;12.70;3.97;;;;;;;;;;6389646;22;19997;-74
2023/12/16 06:16:20;;;;;;;10.40;3.10;;;;;;;;;;6390122;22;20013;-74
2023/12/16 06:18:46;;;;;;;7.68;2.78;;;;;;;;;;6389386;22;20006;-75
2023/12/16 06:21:12;;;;;;;11.48;3.05;;;;;;;;;;6390134;22;20472;-74
2023/12/16 06:23:37;;;;;;;10.07;3.30;;;;;;;;;;6361297;22;20009;-74
2023/12/16 06:26:03;;;;;;;10.82;3.50;;;;;;;;;;6361296;22;20010;-74
2023/12/16 06:28:28;;;;;;;15.55;3.80;;;;;;;;;;6390079;22;20410;-74
2023/12/16 06:30:54;;;;;;;10.18;3.33;;;;;;;;;;6389219;22;20034;-75
2023/12/16 06:33:19;;;;;;;6.80;2.80;;;;;;;;;;6362146;22;20018;-75
2023/12/16 06:35:44;;;;;;;10.88;3.45;;;;;;;;;;6363972;22;20006;-75
2023/12/16 06:38:10;;;;;;;14.35;3.20;;;;;;;;;;6391644;22;20025;-74
2023/12/16 06:40:35;;;;;;;11.02;3.83;;;;;;;;;;6392179;22;19993;-74
2023/12/16 06:43:01;;;;;;;12.73;3.53;;;;;;;;;;6391031;22;20013;-74
2023/12/16 06:45:26;;;;;;;12.82;3.53;;;;;;;;;;6391670;22;20010;-74
2023/12/16 06:47:51;;;;;;;14.25;3.40;;;;;;;;;;6390540;22;20022;-74
2023/12/16 06:50:17;;;;;;;12.82;3.58;;;;;;;;;;6392284;22;20010;-75
2023/12/16 06:52:42;;;;;;;9.32;3.67;;;;;;;;;;6363033;22;20010;-74
2023/12/16 06:55:08;;;;;;;14.65;4.28;;;;;;;;;;6392696;22;20069;-74
2023/12/16 06:57:34;;;;;;;9.30;3.13;;;;;;;;;;6391789;22;20077;-74
2023/12/16 06:59:59;;;;;;;13.73;3.90;;;;;;;;;;6392325;22;20061;-74
2023/12/16 07:02:25;;;;;;;14.07;4.00;;;;;;;;;;6392748;22;20394;-74
2023/12/16 07:04:51;;;;;;;10.57;3.75;;;;;;;;;;6391996;22;20024;-74
2023/12/16 07:07:16;;;;;;;12.75;3.40;;;;;;;;;;6367401;22;20059;-74
2023/12/16 07:09:41;;;;;;;14.50;4.53;;;;;;;;;;6405126;22;20014;-74
2023/12/16 07:12:07;;;;;;;7.53;3.70;;;;;;;;;;6384478;22;20020;-74
2023/12/16 07:14:34;;;;;;;11.77;3.83;;;;;;;;;;6399819;22;20066;-74
2023/12/16 07:16:59;;;;;;;11.82;4.22;;;;;;;;;;6365851;22;20017;-74
2023/12/16 07:19:25;;;;;;;9.15;3.67;;;;;;;;;;6365185;22;20346;-74
2023/12/16 07:21:50;;;;;;;11.95;3.60;;;;;;;;;;6392140;22;20050;-74
2023/12/16 07:24:16;;;;;;;14.10;4.32;;;;;;;;;;6362438;22;20032;-74
2023/12/16 07:26:41;;;;;;;9.80;3.95;;;;;;;;;;6364007;22;20028;-75
2023/12/16 07:29:06;;;;;;;13.88;4.75;;;;;;;;;;6391916;22;20009;-75
2023/12/16 07:31:32;;;;;;;11.75;3.30;;;;;;;;;;6363666;22;20002;-74
2023/12/16 07:33:57;;;;;;;16.77;6.07;;;;;;;;;;6392689;22;20017;-74
2023/12/16 07:36:22;;;;;;;10.80;3.45;;;;;;;;;;6389561;22;20108;-74
2023/12/16 07:38:48;;;;;;;8.13;3.75;;;;;;;;;;6391004;22;20739;-75
2023/12/16 07:41:13;;;;;;;11.57;3.75;;;;;;;;;;6390387;22;20017;-77
2023/12/16 07:43:39;;;;;;;7.88;3.50;;;;;;;;;;6390812;22;19994;-76
2023/12/16 07:46:05;;;;;;;15.18;3.58;;;;;;;;;;6391138;22;20339;-77
2023/12/16 07:48:30;;;;;;;11.80;3.90;;;;;;;;;;6358950;22;20017;-77
2023/12/16 07:50:56;;;;;;;12.32;4.05;;;;;;;;;;6359345;22;20392;-77
2023/12/16 07:53:22;;;;;;;15.80;4.28;;;;;;;;;;6361507;22;20026;-77
2023/12/16 07:55:48;;;;;;;10.00;3.80;;;;;;;;;;6388264;22;19998;-77
2023/12/16 07:58:14;;;;;;;11.07;3.80;;;;;;;;;;6360593;22;20000;-77
2023/12/16 08:00:40;;;;;;;11.90;3.90;;;;;;;;;;6388173;22;20033;-77
2023/12/16 08:03:06;;;;;;;12.48;3.50;;;;;;;;;;6390604;22;20520;-77
2023/12/16 08:05:31;;;;;;;13.18;4.32;;;;;;;;;;6360289;22;20473;-77
2023/12/16 08:07:56;;;;;;;10.68;4.40;;;;;;;;;;6361518;22;19993;-77
2023/12/16 08:10:22;;;;;;;10.23;3.53;;;;;;;;;;6391021;22;20005;-77
2023/12/16 08:12:47;;;;;;;11.45;3.25;;;;;;;;;;6362441;22;20014;-77
2023/12/16 08:15:12;;;;;;;13.65;3.58;;;;;;;;;;6390442;22;20021;-77
2023/12/16 08:17:38;;;;;;;10.75;3.85;;;;;;;;;;6360280;22;20035;-74
2023/12/16 08:20:05;;;;;;;8.30;3.45;;;;;;;;;;6391508;22;20006;-74
2023/12/16 08:22:31;;;;;;;11.07;3.33;;;;;;;;;;6363605;22;20036;-73
2023/12/16 08:24:57;;;;;;;8.07;3.13;;;;;;;;;;6392345;22;20033;-74
2023/12/16 08:27:23;;;;;;;8.05;3.42;;;;;;;;;;6368197;22;20098;-74
2023/12/16 08:29:49;;;;;;;8.10;4.10;;;;;;;;;;6404944;22;20014;-73
2023/12/16 08:32:15;;;;;;;16.67;4.28;;;;;;;;;;6370524;22;20056;-74
2023/12/16 08:34:41;;;;;;;8.48;3.30;;;;;;;;;;6361444;22;20048;-74
2023/12/16 08:37:06;;;;;;;9.15;3.78;;;;;;;;;;6389953;22;19998;-73
2023/12/16 08:39:31;;;;;;;11.73;4.25;;;;;;;;;;6389721;22;20010;-74
2023/12/16 08:41:57;;;;;;;10.05;3.45;;;;;;;;;;6389664;22;20338;-74
2023/12/16 08:44:25;;;;;;;9.90;3.75;;;;;;;;;;6389174;22;20088;-74
2023/12/16 08:46:50;;;;;;;17.40;4.55;;;;;;;;;;6390160;22;20006;-74
2023/12/16 08:49:16;;;;;;;11.98;4.22;;;;;;;;;;6360787;22;20000;-74
2023/12/16 08:51:41;;;;;;;16.20;4.32;;;;;;;;;;6362815;22;20014;-74
2023/12/16 08:54:07;;;;;;;17.90;4.43;;;;;;;;;;6389335;22;20105;-74
2023/12/16 08:56:32;;;;;;;15.05;4.60;;;;;;;;;;6360190;22;20088;-74
2023/12/16 08:58:58;;;;;;;9.15;3.85;;;;;;;;;;6388477;22;20334;-74
2023/12/16 09:01:23;;;;;;;14.23;4.05;;;;;;;;;;6362354;22;20080;-74
2023/12/16 09:03:48;;;;;;;7.25;3.45;;;;;;;;;;6390416;22;20010;-74
2023/12/16 09:06:14;;;;;;;14.35;4.57;;;;;;;;;;6389178;22;20032;-74
2023/12/16 09:08:39;;;;;;;12.80;4.35;;;;;;;;;;6389176;22;20475;-74
2023/12/16 09:11:05;;;;;;;10.35;4.05;;;;;;;;;;6390011;22;20427;-74
2023/12/16 09:13:30;;;;;;;20.45;4.95;;;;;;;;;;6389624;22;20097;-74
2023/12/16 09:15:55;;;;;;;20.55;4.30;;;;;;;;;;6384060;22;20024;-74
2023/12/16 09:18:21;;;;;;;12.05;4.28;;;;;;;;;;6384328;22;20010;-74
2023/12/16 09:20:46;;;;;;;12.88;5.05;;;;;;;;;;6387834;22;20020;-74
2023/12/16 09:23:12;;;;;;;10.60;3.92;;;;;;;;;;6389073;22;20025;-75
2023/12/16 09:25:38;;;;;;;11.55;3.70;;;;;;;;;;6386356;22;20077;-74
2023/12/16 09:28:04;;;;;;;14.50;4.15;;;;;;;;;;6359117;22;20010;-74
2023/12/16 09:30:31;;;;;;;10.73;3.83;;;;;;;;;;6361718;22;20097;-74
2023/12/16 09:32:56;;;;;;;13.77;3.90;;;;;;;;;;6361723;22;20596;-74
2023/12/16 09:35:23;;;;;;;10.60;4.05;;;;;;;;;;6389631;22;20030;-75
2023/12/16 09:37:49;;;;;;;13.30;4.03;;;;;;;;;;6388935;22;20001;-74
2023/12/16 09:40:16;;;;;;;17.20;3.97;;;;;;;;;;6388329;22;20025;-74
2023/12/16 09:42:44;;;;;;;16.30;4.68;;;;;;;;;;6362119;22;20029;-74
2023/12/16 09:45:15;;;;;;;11.93;3.75;;;;;;;;;;6364861;22;20598;-74
2023/12/16 09:47:42;;;;;;;12.55;3.45;;;;;;;;;;6371670;22;20293;-74
2023/12/16 09:50:10;;;;;;;12.45;4.00;;;;;;;;;;6408668;22;20085;-76
2023/12/16 09:52:36;;;;;;;9.80;3.40;;;;;;;;;;6395971;22;20382;-75
2023/12/16 09:55:01;;;;;;;13.77;4.03;;;;;;;;;;6389248;22;20037;-74
2023/12/16 09:57:28;;;;;;;10.55;3.95;;;;;;;;;;6361965;22;20006;-74
2023/12/16 09:59:56;;;;;;;11.63;3.72;;;;;;;;;;6389320;22;20043;-74
2023/12/16 10:02:28;;;;;;;16.00;4.22;;;;;;;;;;6389110;22;20033;-74
2023/12/16 10:04:58;;;;;;;15.23;4.68;;;;;;;;;;6389219;22;20420;-74
2023/12/16 10:07:25;;;;;;;9.63;3.63;;;;;;;;;;6389265;22;20002;-75
2023/12/16 10:09:50;;;;;;;12.55;3.72;;;;;;;;;;6361473;22;20057;-76
2023/12/16 10:12:16;;;;;;;11.98;3.47;;;;;;;;;;6387560;22;20034;-76
2023/12/16 10:14:49;;;;;;;9.98;3.70;;;;;;;;;;6388118;22;20020;-75
2023/12/16 10:17:20;;;;;;;15.23;4.57;;;;;;;;;;6389846;22;20471;-75
2023/12/16 10:19:47;;;;;;;11.68;4.60;;;;;;;;;;6385961;22;19998;-75
2023/12/16 10:22:14;;;;;;;10.43;3.50;;;;;;;;;;6389708;22;20495;-75
2023/12/16 10:24:41;;;;;;;7.80;3.42;;;;;;;;;;6390039;22;20079;-74
2023/12/16 10:27:08;;;;;;;10.02;4.13;;;;;;;;;;6360962;22;20014;-73
2023/12/16 10:29:34;;;;;;;9.40;3.83;;;;;;;;;;6361109;22;20477;-74
2023/12/16 10:32:01;;;;;;;11.35;3.80;;;;;;;;;;6388934;22;20682;-75
2023/12/16 10:34:30;;;;;;;17.52;4.30;;;;;;;;;;6387912;22;20009;-75
2023/12/16 10:37:06;;;;;;;13.68;3.47;;;;;;;;;;6358188;22;20088;-75
2023/12/16 10:39:33;;;;;;;8.07;3.60;;;;;;;;;;6360962;22;20596;-75
2023/12/16 10:41:59;;;;;;;13.65;4.28;;;;;;;;;;6359913;22;20009;-75
2023/12/16 10:44:25;;;;;;;11.82;4.10;;;;;;;;;;6389057;22;20516;-74
2023/12/16 10:46:55;;;;;;;16.45;4.47;;;;;;;;;;6388491;22;20579;-72
2023/12/16 10:49:31;;;;;;;14.95;4.55;;;;;;;;;;6361655;22;20005;-75
2023/12/16 10:52:11;;;;;;;11.68;4.55;;;;;;;;;;6360614;22;20424;-75
2023/12/16 10:54:44;;;;;;;11.05;4.20;;;;;;;;;;6387040;22;20010;-75
2023/12/16 10:57:31;;;;;;;17.67;4.70;;;;;;;;;;6360710;22;20018;-75
2023/12/16 11:00:06;;;;;;;15.77;4.07;;;;;;;;;;6389498;22;20014;-75
2023/12/16 11:02:37;;;;;;;10.25;3.55;;;;;;;;;;6361803;22;20010;-75
2023/12/16 11:05:32;;;;;;;10.15;3.63;;;;;;;;;;6366276;22;20086;-75
2023/12/16 11:08:01;;;;;;;12.63;3.97;;;;;;;;;;6403908;22;19998;-74
2023/12/16 11:10:38;;;;;;;10.88;3.72;;;;;;;;;;6396963;22;20002;-75
2023/12/16 11:13:08;;;;;;;10.27;4.10;;;;;;;;;;6389266;22;20021;-75
2023/12/16 11:15:35;;;;;;;14.02;3.78;;;;;;;;;;6354488;22;20018;-75
2023/12/16 11:18:19;;;;;;;15.65;4.47;;;;;;;;;;6360626;22;20074;-75
2023/12/16 11:20:50;;;;;;;11.93;4.20;;;;;;;;;;6362391;22;20576;-75
2023/12/16 11:23:16;;;;;;;19.90;4.38;;;;;;;;;;6390240;22;20009;-75
2023/12/16 11:25:43;;;;;;;14.40;4.55;;;;;;;;;;6391000;22;20361;-75
2023/12/16 11:28:09;;;;;;;14.27;4.10;;;;;;;;;;6362756;22;20004;-75
2023/12/16 11:30:36;;;;;;;13.20;4.57;;;;;;;;;;6390358;22;20040;-75
2023/12/16 11:33:03;;;;;;;18.48;4.68;;;;;;;;;;6390352;22;20014;-75
2023/12/16 11:35:35;;;;;;;11.60;4.82;;;;;;;;;;6390898;22;20010;-75
2023/12/16 11:38:01;;;;;;;17.38;4.50;;;;;;;;;;6361958;22;20022;-75
2023/12/16 11:40:51;;;;;;;18.80;4.57;;;;;;;;;;6389050;22;20006;-74
2023/12/16 11:43:17;;;;;;;12.52;4.65;;;;;;;;;;6361215;22;20109;-74
2023/12/16 11:45:46;;;;;;;16.25;5.70;;;;;;;;;;6390357;22;20010;-74
2023/12/16 11:48:15;;;;;;;12.20;4.80;;;;;;;;;;6389211;22;20018;-74
2023/12/16 11:50:45;;;;;;;19.70;5.28;;;;;;;;;;6362345;22;20025;-75
2023/12/16 11:53:17;;;;;;;18.10;4.63;;;;;;;;;;6389961;22;20028;-74
2023/12/16 11:55:43;;;;;;;14.65;4.88;;;;;;;;;;6361023;22;20002;-75
2023/12/16 11:58:09;;;;;;;16.38;5.30;;;;;;;;;;6388906;22;19998;-75
2023/12/16 12:00:36;;;;;;;16.25;5.38;;;;;;;;;;6389411;22;20346;-75
2023/12/16 12:03:03;;;;;;;10.80;3.95;;;;;;;;;;6361157;22;20010;-75
2023/12/16 12:05:30;;;;;;;18.95;4.72;;;;;;;;;;6389366;22;20030;-75
2023/12/16 12:07:56;;;;;;;14.00;4.60;;;;;;;;;;6390198;22;19998;-75
2023/12/16 12:10:23;;;;;;;17.88;4.78;;;;;;;;;;6360217;22;20001;-76
2023/12/16 12:12:56;;;;;;;15.05;5.00;;;;;;;;;;6389422;22;20014;-75
2023/12/16 12:15:34;;;;;;;15.20;5.00;;;;;;;;;;6387867;22;20135;-75
2023/12/16 12:18:00;;;;;;;18.70;5.18;;;;;;;;;;6389306;22;20788;-75
2023/12/16 12:20:28;;;;;;;16.60;4.65;;;;;;;;;;6391411;22;20014;-74
2023/12/16 12:22:55;;;;;;;18.65;5.00;;;;;;;;;;6393094;22;20025;-75
2023/12/16 12:25:21;;;;;;;15.85;4.80;;;;;;;;;;6404116;22;19998;-74
2023/12/16 12:27:48;;;;;;;15.45;4.63;;;;;;;;;;6411805;22;20006;-74
2023/12/16 12:30:21;;;;;;;19.83;5.40;;;;;;;;;;6398834;22;20017;-75
2023/12/16 12:32:47;;;;;;;14.40;4.13;;;;;;;;;;6391429;22;20499;-75
2023/12/16 12:35:13;;;;;;;11.10;3.90;;;;;;;;;;6361126;22;20803;-75
2023/12/16 12:37:43;;;;;;;15.13;4.95;;;;;;;;;;6362814;22;20021;-75
2023/12/16 12:40:12;;;;;;;14.20;4.03;;;;;;;;;;6390887;22;20014;-75
2023/12/16 12:42:53;;;;;;;14.15;3.72;;;;;;;;;;6390945;22;20009;-75
2023/12/16 12:45:33;;;;;;;15.27;4.45;;;;;;;;;;6389522;22;20718;-75
2023/12/16 12:48:16;;;;;;;20.83;4.15;;;;;;;;;;6387920;22;20020;-75
2023/12/16 12:50:48;;;;;;;9.53;3.17;;;;;;;;;;6362110;22;20009;-75
2023/12/16 12:53:19;;;;;;;17.98;4.07;;;;;;;;;;6389564;22;20018;-75
2023/12/16 12:55:45;;;;;;;12.43;3.65;;;;;;;;;;6359764;22;20080;-75
2023/12/16 12:58:15;;;;;;;15.63;4.25;;;;;;;;;;6389081;22;20504;-75
2023/12/16 13:03:37;;;;;;;15.23;3.60;;;;;;;;;;6389212;22;20006;-76
2023/12/16 13:06:03;;;;;;;9.05;2.88;;;;;;;;;;6358650;22;20022;-75
2023/12/16 13:10:59;;;;;;;16.35;3.75;;;;;;;;;;6360614;22;20512;-75
2023/12/16 13:13:26;;;;;;;10.00;3.75;;;;;;;;;;6362182;22;20365;-75
2023/12/16 13:15:52;;;;;;;9.70;3.20;;;;;;;;;;6389663;22;20013;-75
2023/12/16 13:18:17;;;;;;;13.88;3.85;;;;;;;;;;6388769;22;20062;-75
2023/12/16 13:20:43;;;;;;;9.85;3.40;;;;;;;;;;6390046;22;20458;-75
2023/12/16 13:23:11;;;;;;;11.48;3.00;;;;;;;;;;6389620;22;20006;-75
2023/12/16 13:25:36;;;;;;;13.77;3.35;;;;;;;;;;6362345;22;20040;-75
2023/12/16 13:28:03;;;;;;;9.75;3.13;;;;;;;;;;6390537;22;20759;-73
2023/12/16 13:30:32;;;;;;;13.13;3.55;;;;;;;;;;6389123;22;20029;-76
2023/12/16 13:32:58;;;;;;;10.65;3.42;;;;;;;;;;6389841;22;20089;-76
2023/12/16 13:35:24;;;;;;;9.07;3.92;;;;;;;;;;6389874;22;20023;-75
2023/12/16 13:37:50;;;;;;;17.83;2.90;;;;;;;;;;6390320;22;20005;-76
2023/12/16 13:40:17;;;;;;;7.18;3.10;;;;;;;;;;6391584;22;20058;-75
2023/12/16 13:42:42;;;;;;;7.15;3.13;;;;;;;;;;6393801;22;20014;-75
2023/12/16 13:45:09;;;;;;;12.00;2.80;;;;;;;;;;6403826;22;20060;-75
2023/12/16 13:47:35;;;;;;;12.93;3.22;;;;;;;;;;6402101;22;20093;-75
2023/12/16 13:50:03;;;;;;;10.38;2.72;;;;;;;;;;6389838;22;20029;-75
2023/12/16 13:52:50;;;;;;;8.85;2.67;;;;;;;;;;6353488;22;20006;-75
2023/12/16 13:55:17;;;;;;;7.80;2.55;;;;;;;;;;6327555;22;20228;-75
2023/12/16 13:57:43;;;;;;;10.02;3.25;;;;;;;;;;6353086;22;20022;-75
2023/12/16 14:00:10;;;;;;;8.55;2.38;;;;;;;;;;6327664;22;20038;-76
2023/12/16 14:02:35;;;;;;;9.40;2.80;;;;;;;;;;6353992;22;20014;-75
2023/12/16 14:05:01;;;;;;;11.68;2.78;;;;;;;;;;6324392;22;20010;-75
2023/12/16 14:07:30;;;;;;;10.82;2.95;;;;;;;;;;6296864;22;20022;-75
2023/12/16 14:09:56;;;;;;;14.63;3.05;;;;;;;;;;6297106;22;20037;-75
2023/12/16 14:12:22;;;;;;;10.50;2.70;;;;;;;;;;6296523;22;20025;-75
2023/12/16 14:14:49;;;;;;;5.53;2.70;;;;;;;;;;6323178;22;20011;-75
2023/12/16 14:17:15;;;;;;;11.55;2.40;;;;;;;;;;6322821;22;20162;-75
2023/12/16 14:19:41;;;;;;;11.88;2.70;;;;;;;;;;6296670;22;20011;-75
2023/12/16 14:22:08;;;;;;;10.38;2.30;;;;;;;;;;6322925;22;20366;-75
2023/12/16 14:24:33;;;;;;;9.02;2.53;;;;;;;;;;6318218;22;20018;-76
2023/12/16 14:26:59;;;;;;;7.07;2.50;;;;;;;;;;6327437;22;20090;-75
2023/12/16 14:29:27;;;;;;;12.95;2.60;;;;;;;;;;6326108;22;20098;-75
2023/12/16 14:31:54;;;;;;;7.05;2.47;;;;;;;;;;6326390;22;20002;-75
2023/12/16 14:34:21;;;;;;;10.38;2.60;;;;;;;;;;6327139;22;20015;-75